<?xml version="1.0" encoding="UTF-8" standalone="no" ?>
<gpx xmlns="http://www.topografix.com/GPX/1/1" xmlns:xsi="http://www.w3.org/2001/XMLSchema-instance" xsi:schemaLocation="http://www.topografix.com/GPX/1/1 http://www.topografix.com/GPX/1/1/gpx.xsd" version="1.1" creator="VisuGPX - https://www.visugpx.com">
  <metadata>
    <name>brosses </name>
    <desc><![CDATA[Brosses Chevoches Crot rouge
Parking Brosses Cimetière
]]></desc>
  </metadata>
  <trk>
    <name><![CDATA[brosses _1]]></name>
    <extensions>
      <line xmlns="http://www.topografix.com/GPX/gpx_style/0/2">
        <color>0000FF</color>
        <width>4</width>
      </line>
    </extensions>
    <trkseg>
      <trkpt lat="47.53646" lon="3.69029">
        <ele>209</ele>
        <time>2021-06-22T15:50:53+02:00</time>
      </trkpt>
      <trkpt lat="47.53773" lon="3.68993">
        <ele>212</ele>
        <time>2021-06-22T15:50:58+02:00</time>
      </trkpt>
      <trkpt lat="47.538" lon="3.69134">
        <ele>217</ele>
        <time>2021-06-22T15:51:03+02:00</time>
      </trkpt>
      <trkpt lat="47.53865" lon="3.69262">
        <ele>231</ele>
        <time>2021-06-22T15:51:08+02:00</time>
      </trkpt>
      <trkpt lat="47.53874" lon="3.69288">
        <ele>233</ele>
        <time>2021-06-22T15:51:13+02:00</time>
      </trkpt>
      <trkpt lat="47.539" lon="3.69302">
        <ele>237</ele>
        <time>2021-06-22T15:51:18+02:00</time>
      </trkpt>
      <trkpt lat="47.53918" lon="3.69309">
        <ele>238</ele>
        <time>2021-06-22T15:51:23+02:00</time>
      </trkpt>
      <trkpt lat="47.53958" lon="3.69264">
        <ele>239</ele>
        <time>2021-06-22T15:51:28+02:00</time>
      </trkpt>
      <trkpt lat="47.54011" lon="3.69193">
        <ele>237</ele>
        <time>2021-06-22T15:51:33+02:00</time>
      </trkpt>
      <trkpt lat="47.54047" lon="3.69134">
        <ele>234</ele>
        <time>2021-06-22T15:51:38+02:00</time>
      </trkpt>
      <trkpt lat="47.54134" lon="3.69073">
        <ele>230</ele>
        <time>2021-06-22T15:51:43+02:00</time>
      </trkpt>
      <trkpt lat="47.54197" lon="3.69125">
        <ele>238</ele>
        <time>2021-06-22T15:51:48+02:00</time>
      </trkpt>
      <trkpt lat="47.5425" lon="3.69099">
        <ele>235</ele>
        <time>2021-06-22T15:51:53+02:00</time>
      </trkpt>
      <trkpt lat="47.54257" lon="3.69078">
        <ele>233</ele>
        <time>2021-06-22T15:51:58+02:00</time>
      </trkpt>
      <trkpt lat="47.54249" lon="3.69062">
        <ele>231</ele>
        <time>2021-06-22T15:52:03+02:00</time>
      </trkpt>
      <trkpt lat="47.5425" lon="3.69048">
        <ele>230</ele>
        <time>2021-06-22T15:52:08+02:00</time>
      </trkpt>
      <trkpt lat="47.54317" lon="3.6903">
        <ele>231</ele>
        <time>2021-06-22T15:52:13+02:00</time>
      </trkpt>
      <trkpt lat="47.5442" lon="3.69049">
        <ele>240</ele>
        <time>2021-06-22T15:52:18+02:00</time>
      </trkpt>
      <trkpt lat="47.54487" lon="3.69097">
        <ele>244</ele>
        <time>2021-06-22T15:52:23+02:00</time>
      </trkpt>
      <trkpt lat="47.54547" lon="3.69154">
        <ele>248</ele>
        <time>2021-06-22T15:52:28+02:00</time>
      </trkpt>
      <trkpt lat="47.54604" lon="3.69219">
        <ele>252</ele>
        <time>2021-06-22T15:52:33+02:00</time>
      </trkpt>
      <trkpt lat="47.54577" lon="3.69092">
        <ele>244</ele>
        <time>2021-06-22T15:52:38+02:00</time>
      </trkpt>
      <trkpt lat="47.54504" lon="3.68933">
        <ele>228</ele>
        <time>2021-06-22T15:52:43+02:00</time>
      </trkpt>
      <trkpt lat="47.54446" lon="3.68838">
        <ele>217</ele>
        <time>2021-06-22T15:52:48+02:00</time>
      </trkpt>
      <trkpt lat="47.54391" lon="3.68675">
        <ele>203</ele>
        <time>2021-06-22T15:52:53+02:00</time>
      </trkpt>
      <trkpt lat="47.54353" lon="3.6857">
        <ele>197</ele>
        <time>2021-06-22T15:52:58+02:00</time>
      </trkpt>
      <trkpt lat="47.54352" lon="3.68486">
        <ele>193</ele>
        <time>2021-06-22T15:53:03+02:00</time>
      </trkpt>
      <trkpt lat="47.54378" lon="3.68394">
        <ele>185</ele>
        <time>2021-06-22T15:53:08+02:00</time>
      </trkpt>
      <trkpt lat="47.54393" lon="3.6825">
        <ele>170</ele>
        <time>2021-06-22T15:53:13+02:00</time>
      </trkpt>
      <trkpt lat="47.54442" lon="3.68183">
        <ele>168</ele>
        <time>2021-06-22T15:53:18+02:00</time>
      </trkpt>
      <trkpt lat="47.54501" lon="3.68094">
        <ele>163</ele>
        <time>2021-06-22T15:53:23+02:00</time>
      </trkpt>
      <trkpt lat="47.54669" lon="3.68103">
        <ele>163</ele>
        <time>2021-06-22T15:53:28+02:00</time>
      </trkpt>
      <trkpt lat="47.54918" lon="3.68133">
        <ele>164</ele>
        <time>2021-06-22T15:53:33+02:00</time>
      </trkpt>
      <trkpt lat="47.55113" lon="3.68138">
        <ele>163</ele>
        <time>2021-06-22T15:53:38+02:00</time>
      </trkpt>
      <trkpt lat="47.55199" lon="3.68101">
        <ele>167</ele>
        <time>2021-06-22T15:53:43+02:00</time>
      </trkpt>
      <trkpt lat="47.553" lon="3.67923">
        <ele>156</ele>
        <time>2021-06-22T15:53:48+02:00</time>
      </trkpt>
      <trkpt lat="47.55456" lon="3.67897">
        <ele>154</ele>
        <time>2021-06-22T15:53:53+02:00</time>
      </trkpt>
      <trkpt lat="47.55518" lon="3.67863">
        <ele>156</ele>
        <time>2021-06-22T15:53:58+02:00</time>
      </trkpt>
      <trkpt lat="47.55573" lon="3.67813">
        <ele>165</ele>
        <time>2021-06-22T15:54:03+02:00</time>
      </trkpt>
      <trkpt lat="47.55588" lon="3.67752">
        <ele>167</ele>
        <time>2021-06-22T15:54:08+02:00</time>
      </trkpt>
      <trkpt lat="47.55579" lon="3.67699">
        <ele>165</ele>
        <time>2021-06-22T15:54:13+02:00</time>
      </trkpt>
      <trkpt lat="47.5556" lon="3.67633">
        <ele>164</ele>
        <time>2021-06-22T15:54:18+02:00</time>
      </trkpt>
      <trkpt lat="47.55445" lon="3.67506">
        <ele>156</ele>
        <time>2021-06-22T15:54:23+02:00</time>
      </trkpt>
      <trkpt lat="47.55431" lon="3.67441">
        <ele>156</ele>
        <time>2021-06-22T15:54:28+02:00</time>
      </trkpt>
      <trkpt lat="47.5539" lon="3.67402">
        <ele>155</ele>
        <time>2021-06-22T15:54:33+02:00</time>
      </trkpt>
      <trkpt lat="47.55357" lon="3.67315">
        <ele>155</ele>
        <time>2021-06-22T15:54:38+02:00</time>
      </trkpt>
      <trkpt lat="47.55331" lon="3.67248">
        <ele>150</ele>
        <time>2021-06-22T15:54:43+02:00</time>
      </trkpt>
      <trkpt lat="47.55305" lon="3.6718">
        <ele>150</ele>
        <time>2021-06-22T15:54:48+02:00</time>
      </trkpt>
      <trkpt lat="47.55291" lon="3.67145">
        <ele>150</ele>
        <time>2021-06-22T15:54:53+02:00</time>
      </trkpt>
      <trkpt lat="47.55228" lon="3.67114">
        <ele>150</ele>
        <time>2021-06-22T15:54:58+02:00</time>
      </trkpt>
      <trkpt lat="47.55182" lon="3.67053">
        <ele>150</ele>
        <time>2021-06-22T15:55:03+02:00</time>
      </trkpt>
      <trkpt lat="47.5514" lon="3.66987">
        <ele>152</ele>
        <time>2021-06-22T15:55:08+02:00</time>
      </trkpt>
      <trkpt lat="47.55118" lon="3.66962">
        <ele>154</ele>
        <time>2021-06-22T15:55:13+02:00</time>
      </trkpt>
      <trkpt lat="47.55083" lon="3.6699">
        <ele>157</ele>
        <time>2021-06-22T15:55:18+02:00</time>
      </trkpt>
      <trkpt lat="47.55053" lon="3.67015">
        <ele>162</ele>
        <time>2021-06-22T15:55:23+02:00</time>
      </trkpt>
      <trkpt lat="47.54992" lon="3.6701">
        <ele>171</ele>
        <time>2021-06-22T15:55:28+02:00</time>
      </trkpt>
      <trkpt lat="47.5499" lon="3.66935">
        <ele>171</ele>
        <time>2021-06-22T15:55:33+02:00</time>
      </trkpt>
      <trkpt lat="47.54988" lon="3.66866">
        <ele>170</ele>
        <time>2021-06-22T15:55:38+02:00</time>
      </trkpt>
      <trkpt lat="47.54999" lon="3.66752">
        <ele>172</ele>
        <time>2021-06-22T15:55:43+02:00</time>
      </trkpt>
      <trkpt lat="47.55002" lon="3.6671">
        <ele>175</ele>
        <time>2021-06-22T15:55:48+02:00</time>
      </trkpt>
      <trkpt lat="47.54992" lon="3.6667">
        <ele>179</ele>
        <time>2021-06-22T15:55:53+02:00</time>
      </trkpt>
      <trkpt lat="47.54982" lon="3.66606">
        <ele>183</ele>
        <time>2021-06-22T15:55:58+02:00</time>
      </trkpt>
      <trkpt lat="47.54983" lon="3.6654">
        <ele>185</ele>
        <time>2021-06-22T15:56:03+02:00</time>
      </trkpt>
      <trkpt lat="47.54981" lon="3.66487">
        <ele>186</ele>
        <time>2021-06-22T15:56:08+02:00</time>
      </trkpt>
      <trkpt lat="47.54966" lon="3.66409">
        <ele>188</ele>
        <time>2021-06-22T15:56:13+02:00</time>
      </trkpt>
      <trkpt lat="47.54982" lon="3.66353">
        <ele>186</ele>
        <time>2021-06-22T15:56:18+02:00</time>
      </trkpt>
      <trkpt lat="47.54967" lon="3.66296">
        <ele>187</ele>
        <time>2021-06-22T15:56:23+02:00</time>
      </trkpt>
      <trkpt lat="47.54959" lon="3.6625">
        <ele>187</ele>
        <time>2021-06-22T15:56:28+02:00</time>
      </trkpt>
      <trkpt lat="47.54999" lon="3.66065">
        <ele>181</ele>
        <time>2021-06-22T15:56:33+02:00</time>
      </trkpt>
      <trkpt lat="47.55008" lon="3.66012">
        <ele>178</ele>
        <time>2021-06-22T15:56:38+02:00</time>
      </trkpt>
      <trkpt lat="47.55032" lon="3.65941">
        <ele>174</ele>
        <time>2021-06-22T15:56:43+02:00</time>
      </trkpt>
      <trkpt lat="47.55011" lon="3.65853">
        <ele>168</ele>
        <time>2021-06-22T15:56:48+02:00</time>
      </trkpt>
      <trkpt lat="47.55007" lon="3.65802">
        <ele>166</ele>
        <time>2021-06-22T15:56:53+02:00</time>
      </trkpt>
      <trkpt lat="47.5499" lon="3.65745">
        <ele>164</ele>
        <time>2021-06-22T15:56:58+02:00</time>
      </trkpt>
      <trkpt lat="47.54984" lon="3.6569">
        <ele>161</ele>
        <time>2021-06-22T15:57:03+02:00</time>
      </trkpt>
      <trkpt lat="47.54989" lon="3.6562">
        <ele>157</ele>
        <time>2021-06-22T15:57:08+02:00</time>
      </trkpt>
      <trkpt lat="47.55034" lon="3.65558">
        <ele>152</ele>
        <time>2021-06-22T15:57:13+02:00</time>
      </trkpt>
      <trkpt lat="47.55071" lon="3.65468">
        <ele>142</ele>
        <time>2021-06-22T15:57:18+02:00</time>
      </trkpt>
      <trkpt lat="47.55127" lon="3.65359">
        <ele>151</ele>
        <time>2021-06-22T15:57:23+02:00</time>
      </trkpt>
      <trkpt lat="47.55104" lon="3.65328">
        <ele>153</ele>
        <time>2021-06-22T15:57:28+02:00</time>
      </trkpt>
      <trkpt lat="47.55019" lon="3.65325">
        <ele>147</ele>
        <time>2021-06-22T15:57:33+02:00</time>
      </trkpt>
      <trkpt lat="47.54965" lon="3.65329">
        <ele>144</ele>
        <time>2021-06-22T15:57:38+02:00</time>
      </trkpt>
      <trkpt lat="47.54897" lon="3.65306">
        <ele>146</ele>
        <time>2021-06-22T15:57:43+02:00</time>
      </trkpt>
      <trkpt lat="47.54835" lon="3.65256">
        <ele>145</ele>
        <time>2021-06-22T15:57:48+02:00</time>
      </trkpt>
      <trkpt lat="47.54778" lon="3.65184">
        <ele>145</ele>
        <time>2021-06-22T15:57:53+02:00</time>
      </trkpt>
      <trkpt lat="47.54733" lon="3.65109">
        <ele>143</ele>
        <time>2021-06-22T15:57:58+02:00</time>
      </trkpt>
      <trkpt lat="47.54711" lon="3.65048">
        <ele>142</ele>
        <time>2021-06-22T15:58:03+02:00</time>
      </trkpt>
      <trkpt lat="47.54736" lon="3.64993">
        <ele>141</ele>
        <time>2021-06-22T15:58:08+02:00</time>
      </trkpt>
      <trkpt lat="47.54804" lon="3.65015">
        <ele>145</ele>
        <time>2021-06-22T15:58:13+02:00</time>
      </trkpt>
      <trkpt lat="47.54915" lon="3.64972">
        <ele>147</ele>
        <time>2021-06-22T15:58:18+02:00</time>
      </trkpt>
      <trkpt lat="47.55021" lon="3.64899">
        <ele>141</ele>
        <time>2021-06-22T15:58:23+02:00</time>
      </trkpt>
      <trkpt lat="47.55032" lon="3.64816">
        <ele>135</ele>
        <time>2021-06-22T15:58:28+02:00</time>
      </trkpt>
      <trkpt lat="47.5491" lon="3.64848">
        <ele>147</ele>
        <time>2021-06-22T15:58:33+02:00</time>
      </trkpt>
      <trkpt lat="47.54807" lon="3.64834">
        <ele>155</ele>
        <time>2021-06-22T15:58:38+02:00</time>
      </trkpt>
      <trkpt lat="47.54734" lon="3.64777">
        <ele>165</ele>
        <time>2021-06-22T15:58:43+02:00</time>
      </trkpt>
      <trkpt lat="47.54687" lon="3.64708">
        <ele>174</ele>
        <time>2021-06-22T15:58:48+02:00</time>
      </trkpt>
      <trkpt lat="47.54527" lon="3.64887">
        <ele>178</ele>
        <time>2021-06-22T15:58:53+02:00</time>
      </trkpt>
      <trkpt lat="47.54503" lon="3.64971">
        <ele>180</ele>
        <time>2021-06-22T15:58:58+02:00</time>
      </trkpt>
      <trkpt lat="47.54406" lon="3.65093">
        <ele>186</ele>
        <time>2021-06-22T15:59:03+02:00</time>
      </trkpt>
      <trkpt lat="47.5432" lon="3.65216">
        <ele>190</ele>
        <time>2021-06-22T15:59:08+02:00</time>
      </trkpt>
      <trkpt lat="47.54358" lon="3.653">
        <ele>190</ele>
        <time>2021-06-22T15:59:13+02:00</time>
      </trkpt>
      <trkpt lat="47.54406" lon="3.65425">
        <ele>188</ele>
        <time>2021-06-22T15:59:18+02:00</time>
      </trkpt>
      <trkpt lat="47.54443" lon="3.65539">
        <ele>185</ele>
        <time>2021-06-22T15:59:23+02:00</time>
      </trkpt>
      <trkpt lat="47.54457" lon="3.65622">
        <ele>180</ele>
        <time>2021-06-22T15:59:28+02:00</time>
      </trkpt>
      <trkpt lat="47.54542" lon="3.6572">
        <ele>175</ele>
        <time>2021-06-22T15:59:33+02:00</time>
      </trkpt>
      <trkpt lat="47.5447" lon="3.65786">
        <ele>185</ele>
        <time>2021-06-22T15:59:38+02:00</time>
      </trkpt>
      <trkpt lat="47.54359" lon="3.65914">
        <ele>201</ele>
        <time>2021-06-22T15:59:43+02:00</time>
      </trkpt>
      <trkpt lat="47.54313" lon="3.65937">
        <ele>201</ele>
        <time>2021-06-22T15:59:48+02:00</time>
      </trkpt>
      <trkpt lat="47.54307" lon="3.6601">
        <ele>208</ele>
        <time>2021-06-22T15:59:53+02:00</time>
      </trkpt>
      <trkpt lat="47.54273" lon="3.66039">
        <ele>208</ele>
        <time>2021-06-22T15:59:58+02:00</time>
      </trkpt>
      <trkpt lat="47.54249" lon="3.66083">
        <ele>210</ele>
        <time>2021-06-22T16:00:03+02:00</time>
      </trkpt>
      <trkpt lat="47.54232" lon="3.66163">
        <ele>213</ele>
        <time>2021-06-22T16:00:08+02:00</time>
      </trkpt>
      <trkpt lat="47.54232" lon="3.66237">
        <ele>217</ele>
        <time>2021-06-22T16:00:13+02:00</time>
      </trkpt>
      <trkpt lat="47.54239" lon="3.66299">
        <ele>221</ele>
        <time>2021-06-22T16:00:18+02:00</time>
      </trkpt>
      <trkpt lat="47.54262" lon="3.66332">
        <ele>223</ele>
        <time>2021-06-22T16:00:23+02:00</time>
      </trkpt>
      <trkpt lat="47.54248" lon="3.66377">
        <ele>224</ele>
        <time>2021-06-22T16:00:28+02:00</time>
      </trkpt>
      <trkpt lat="47.54238" lon="3.66437">
        <ele>224</ele>
        <time>2021-06-22T16:00:33+02:00</time>
      </trkpt>
      <trkpt lat="47.54229" lon="3.66502">
        <ele>224</ele>
        <time>2021-06-22T16:00:38+02:00</time>
      </trkpt>
      <trkpt lat="47.5419" lon="3.66673">
        <ele>224</ele>
        <time>2021-06-22T16:00:43+02:00</time>
      </trkpt>
      <trkpt lat="47.54193" lon="3.66772">
        <ele>227</ele>
        <time>2021-06-22T16:00:48+02:00</time>
      </trkpt>
      <trkpt lat="47.54138" lon="3.66919">
        <ele>230</ele>
        <time>2021-06-22T16:00:53+02:00</time>
      </trkpt>
      <trkpt lat="47.54125" lon="3.67017">
        <ele>230</ele>
        <time>2021-06-22T16:00:58+02:00</time>
      </trkpt>
      <trkpt lat="47.54092" lon="3.67093">
        <ele>228</ele>
        <time>2021-06-22T16:01:03+02:00</time>
      </trkpt>
      <trkpt lat="47.5409" lon="3.6725">
        <ele>218</ele>
        <time>2021-06-22T16:01:08+02:00</time>
      </trkpt>
      <trkpt lat="47.54044" lon="3.67279">
        <ele>223</ele>
        <time>2021-06-22T16:01:13+02:00</time>
      </trkpt>
      <trkpt lat="47.54011" lon="3.67415">
        <ele>220</ele>
        <time>2021-06-22T16:01:18+02:00</time>
      </trkpt>
      <trkpt lat="47.53954" lon="3.67534">
        <ele>219</ele>
        <time>2021-06-22T16:01:23+02:00</time>
      </trkpt>
      <trkpt lat="47.53894" lon="3.67557">
        <ele>221</ele>
        <time>2021-06-22T16:01:28+02:00</time>
      </trkpt>
      <trkpt lat="47.53936" lon="3.67717">
        <ele>209</ele>
        <time>2021-06-22T16:01:33+02:00</time>
      </trkpt>
      <trkpt lat="47.53939" lon="3.67792">
        <ele>207</ele>
        <time>2021-06-22T16:01:38+02:00</time>
      </trkpt>
      <trkpt lat="47.54003" lon="3.67839">
        <ele>201</ele>
        <time>2021-06-22T16:01:43+02:00</time>
      </trkpt>
      <trkpt lat="47.54078" lon="3.68031">
        <ele>185</ele>
        <time>2021-06-22T16:01:48+02:00</time>
      </trkpt>
      <trkpt lat="47.54105" lon="3.68097">
        <ele>178</ele>
        <time>2021-06-22T16:01:53+02:00</time>
      </trkpt>
      <trkpt lat="47.54127" lon="3.68269">
        <ele>168</ele>
        <time>2021-06-22T16:01:58+02:00</time>
      </trkpt>
      <trkpt lat="47.53999" lon="3.68321">
        <ele>167</ele>
        <time>2021-06-22T16:02:03+02:00</time>
      </trkpt>
      <trkpt lat="47.53904" lon="3.68351">
        <ele>176</ele>
        <time>2021-06-22T16:02:08+02:00</time>
      </trkpt>
      <trkpt lat="47.53858" lon="3.68351">
        <ele>181</ele>
        <time>2021-06-22T16:02:13+02:00</time>
      </trkpt>
      <trkpt lat="47.53759" lon="3.68456">
        <ele>181</ele>
        <time>2021-06-22T16:02:18+02:00</time>
      </trkpt>
      <trkpt lat="47.53794" lon="3.68476">
        <ele>179</ele>
        <time>2021-06-22T16:02:23+02:00</time>
      </trkpt>
      <trkpt lat="47.5383" lon="3.68511">
        <ele>180</ele>
        <time>2021-06-22T16:02:28+02:00</time>
      </trkpt>
      <trkpt lat="47.53817" lon="3.68609">
        <ele>187</ele>
        <time>2021-06-22T16:02:33+02:00</time>
      </trkpt>
      <trkpt lat="47.53807" lon="3.68696">
        <ele>193</ele>
        <time>2021-06-22T16:02:38+02:00</time>
      </trkpt>
      <trkpt lat="47.53828" lon="3.68769">
        <ele>198</ele>
        <time>2021-06-22T16:02:43+02:00</time>
      </trkpt>
      <trkpt lat="47.53831" lon="3.68837">
        <ele>201</ele>
        <time>2021-06-22T16:02:48+02:00</time>
      </trkpt>
      <trkpt lat="47.53791" lon="3.68879">
        <ele>204</ele>
        <time>2021-06-22T16:02:53+02:00</time>
      </trkpt>
      <trkpt lat="47.53793" lon="3.68975">
        <ele>211</ele>
        <time>2021-06-22T16:02:58+02:00</time>
      </trkpt>
      <trkpt lat="47.53651" lon="3.69021">
        <ele>209</ele>
        <time>2021-06-22T16:03:03+02:00</time>
      </trkpt>
    </trkseg>
  </trk>
</gpx>